sensor_id;sensor_type;location;lat;lon;timestamp;pressure;altitude;pressure_sealevel;temperature;humidity
29247;BME280;16272;48.188;9.964;2022-12-24T00:00:42;95306.63;;;12.25;71.30
29247;BME280;16272;48.188;9.964;2022-12-24T00:03:07;95297.75;;;12.32;70.80
29247;BME280;16272;48.188;9.964;2022-12-24T00:05:33;95299.53;;;12.40;70.44
29247;BME280;16272;48.188;9.964;2022-12-24T00:07:58;95301.41;;;11.84;72.56
29247;BME280;16272;48.188;9.964;2022-12-24T00:10:24;95306.91;;;11.82;72.58
29247;BME280;16272;48.188;9.964;2022-12-24T00:12:50;95294.16;;;11.69;72.47
29247;BME280;16272;48.188;9.964;2022-12-24T00:15:15;95300.34;;;11.53;73.59
29247;BME280;16272;48.188;9.964;2022-12-24T00:17:42;95316.09;;;11.71;73.09
29247;BME280;16272;48.188;9.964;2022-12-24T00:20:08;95321.91;;;11.75;73.15
29247;BME280;16272;48.188;9.964;2022-12-24T00:22:34;95318.09;;;11.69;73.71
29247;BME280;16272;48.188;9.964;2022-12-24T00:24:59;95335.50;;;11.80;72.99
29247;BME280;16272;48.188;9.964;2022-12-24T00:27:24;95336.50;;;11.95;72.75
29247;BME280;16272;48.188;9.964;2022-12-24T00:29:50;95332.91;;;11.64;73.39
29247;BME280;16272;48.188;9.964;2022-12-24T00:32:15;95330.88;;;11.66;73.59
29247;BME280;16272;48.188;9.964;2022-12-24T00:34:41;95335.16;;;12.00;72.23
29247;BME280;16272;48.188;9.964;2022-12-24T00:37:06;95337.19;;;11.81;72.80
29247;BME280;16272;48.188;9.964;2022-12-24T00:39:32;95347.16;;;11.95;71.89
29247;BME280;16272;48.188;9.964;2022-12-24T00:41:58;95340.16;;;11.94;72.22
29247;BME280;16272;48.188;9.964;2022-12-24T00:44:23;95340.19;;;11.78;73.17
29247;BME280;16272;48.188;9.964;2022-12-24T00:46:49;95350.81;;;11.94;72.65
29247;BME280;16272;48.188;9.964;2022-12-24T00:49:15;95364.09;;;12.03;72.15
29247;BME280;16272;48.188;9.964;2022-12-24T00:51:40;95362.13;;;11.80;73.53
29247;BME280;16272;48.188;9.964;2022-12-24T00:54:06;95356.09;;;12.03;72.50
29247;BME280;16272;48.188;9.964;2022-12-24T00:56:32;95360.28;;;11.89;73.50
29247;BME280;16272;48.188;9.964;2022-12-24T00:58:59;95352.47;;;12.04;72.84
29247;BME280;16272;48.188;9.964;2022-12-24T01:01:25;95353.94;;;11.98;72.72
29247;BME280;16272;48.188;9.964;2022-12-24T01:03:51;95354.75;;;12.15;72.15
29247;BME280;16272;48.188;9.964;2022-12-24T01:06:23;95364.75;;;12.05;73.08
29247;BME280;16272;48.188;9.964;2022-12-24T01:08:51;95374.47;;;12.29;71.95
29247;BME280;16272;48.188;9.964;2022-12-24T01:11:17;95375.69;;;12.10;72.51
29247;BME280;16272;48.188;9.964;2022-12-24T01:13:43;95380.28;;;12.32;71.72
29247;BME280;16272;48.188;9.964;2022-12-24T01:16:16;95375.47;;;12.28;71.25
29247;BME280;16272;48.188;9.964;2022-12-24T01:18:43;95373.13;;;11.52;74.60
29247;BME280;16272;48.188;9.964;2022-12-24T01:21:18;95381.28;;;11.43;74.71
29247;BME280;16272;48.188;9.964;2022-12-24T01:23:43;95392.25;;;11.39;75.01
29247;BME280;16272;48.188;9.964;2022-12-24T01:26:09;95391.25;;;11.57;74.58
29247;BME280;16272;48.188;9.964;2022-12-24T01:28:37;95402.72;;;11.66;73.70
29247;BME280;16272;48.188;9.964;2022-12-24T01:31:09;95407.69;;;11.69;73.45
29247;BME280;16272;48.188;9.964;2022-12-24T01:33:42;95426.31;;;11.52;73.92
29247;BME280;16272;48.188;9.964;2022-12-24T01:36:11;95425.31;;;11.86;72.89
29247;BME280;16272;48.188;9.964;2022-12-24T01:38:37;95431.16;;;11.40;73.65
29247;BME280;16272;48.188;9.964;2022-12-24T01:41:22;95438.97;;;11.50;73.90
29247;BME280;16272;48.188;9.964;2022-12-24T01:44:31;95432.66;;;11.68;72.60
29247;BME280;16272;48.188;9.964;2022-12-24T01:47:19;95434.63;;;11.66;72.88
29247;BME280;16272;48.188;9.964;2022-12-24T01:49:58;95446.28;;;11.73;72.17
29247;BME280;16272;48.188;9.964;2022-12-24T01:52:30;95454.25;;;11.40;72.53
29247;BME280;16272;48.188;9.964;2022-12-24T01:55:13;95445.09;;;11.59;72.34
29247;BME280;16272;48.188;9.964;2022-12-24T01:57:47;95455.56;;;11.52;71.89
29247;BME280;16272;48.188;9.964;2022-12-24T02:00:15;95460.06;;;11.27;72.53
29247;BME280;16272;48.188;9.964;2022-12-24T02:02:49;95449.25;;;11.29;72.95
29247;BME280;16272;48.188;9.964;2022-12-24T02:05:21;95442.59;;;11.25;71.62
29247;BME280;16272;48.188;9.964;2022-12-24T02:07:49;95442.75;;;11.15;72.37
29247;BME280;16272;48.188;9.964;2022-12-24T02:10:15;95446.91;;;11.09;71.74
29247;BME280;16272;48.188;9.964;2022-12-24T02:12:41;95448.16;;;10.89;72.65
29247;BME280;16272;48.188;9.964;2022-12-24T02:15:11;95435.41;;;10.92;72.54
29247;BME280;16272;48.188;9.964;2022-12-24T02:23:15;95439.25;;;11.06;71.63
29247;BME280;16272;48.188;9.964;2022-12-24T02:32:09;95452.16;;;10.84;71.67
29247;BME280;16272;48.188;9.964;2022-12-24T02:37:05;95472.09;;;10.97;71.47
29247;BME280;16272;48.188;9.964;2022-12-24T02:39:42;95466.09;;;10.87;70.84
29247;BME280;16272;48.188;9.964;2022-12-24T02:42:11;95480.53;;;10.76;71.70
29247;BME280;16272;48.188;9.964;2022-12-24T02:44:42;95470.47;;;11.04;70.53
29247;BME280;16272;48.188;9.964;2022-12-24T02:47:16;95481.09;;;10.96;71.37
29247;BME280;16272;48.188;9.964;2022-12-24T02:49:44;95481.44;;;11.09;70.25
29247;BME280;16272;48.188;9.964;2022-12-24T02:52:48;95472.53;;;11.27;69.64
29247;BME280;16272;48.188;9.964;2022-12-24T03:06:27;95471.19;;;11.31;70.27
29247;BME280;16272;48.188;9.964;2022-12-24T03:09:07;95479.47;;;11.11;71.01
29247;BME280;16272;48.188;9.964;2022-12-24T03:11:41;95489.59;;;11.16;70.74
29247;BME280;16272;48.188;9.964;2022-12-24T03:14:09;95494.25;;;11.14;70.93
29247;BME280;16272;48.188;9.964;2022-12-24T03:16:39;95495.50;;;10.93;71.71
29247;BME280;16272;48.188;9.964;2022-12-24T03:19:06;95498.13;;;10.77;71.99
29247;BME280;16272;48.188;9.964;2022-12-24T03:21:34;95495.91;;;11.15;71.11
29247;BME280;16272;48.188;9.964;2022-12-24T03:24:01;95502.19;;;10.97;71.23
29247;BME280;16272;48.188;9.964;2022-12-24T03:26:28;95502.03;;;10.99;71.38
29247;BME280;16272;48.188;9.964;2022-12-24T03:28:54;95509.56;;;11.20;70.88
29247;BME280;16272;48.188;9.964;2022-12-24T03:31:21;95498.31;;;11.75;68.49
29247;BME280;16272;48.188;9.964;2022-12-24T03:33:47;95509.75;;;11.27;69.85
29247;BME280;16272;48.188;9.964;2022-12-24T03:36:13;95511.50;;;11.01;70.42
29247;BME280;16272;48.188;9.964;2022-12-24T03:38:39;95509.75;;;11.35;69.79
29247;BME280;16272;48.188;9.964;2022-12-24T03:41:04;95509.22;;;11.23;70.01
29247;BME280;16272;48.188;9.964;2022-12-24T03:43:30;95523.34;;;11.15;70.32
29247;BME280;16272;48.188;9.964;2022-12-24T03:45:56;95523.34;;;11.15;70.36
29247;BME280;16272;48.188;9.964;2022-12-24T03:48:21;95532.28;;;11.14;70.41
29247;BME280;16272;48.188;9.964;2022-12-24T03:50:46;95527.59;;;11.00;70.97
29247;BME280;16272;48.188;9.964;2022-12-24T03:53:27;95533.66;;;11.27;70.05
29247;BME280;16272;48.188;9.964;2022-12-24T03:55:52;95526.91;;;10.90;71.29
29247;BME280;16272;48.188;9.964;2022-12-24T03:58:18;95526.00;;;11.24;69.61
29247;BME280;16272;48.188;9.964;2022-12-24T04:00:43;95509.88;;;11.09;70.30
29247;BME280;16272;48.188;9.964;2022-12-24T04:03:08;95520.81;;;11.06;70.15
29247;BME280;16272;48.188;9.964;2022-12-24T04:05:33;95535.13;;;11.21;69.64
29247;BME280;16272;48.188;9.964;2022-12-24T04:07:59;95542.25;;;11.12;69.63
29247;BME280;16272;48.188;9.964;2022-12-24T04:10:24;95539.28;;;11.15;69.85
29247;BME280;16272;48.188;9.964;2022-12-24T04:12:50;95545.59;;;11.22;69.86
29247;BME280;16272;48.188;9.964;2022-12-24T04:15:16;95542.59;;;11.17;70.21
29247;BME280;16272;48.188;9.964;2022-12-24T04:17:44;95548.28;;;11.31;69.82
29247;BME280;16272;48.188;9.964;2022-12-24T04:20:10;95547.88;;;11.01;69.96
29247;BME280;16272;48.188;9.964;2022-12-24T04:22:35;95555.13;;;11.42;69.23
29247;BME280;16272;48.188;9.964;2022-12-24T04:25:01;95553.28;;;11.34;68.92
29247;BME280;16272;48.188;9.964;2022-12-24T04:27:26;95552.31;;;11.43;68.75
29247;BME280;16272;48.188;9.964;2022-12-24T04:29:52;95545.09;;;11.19;69.63
29247;BME280;16272;48.188;9.964;2022-12-24T04:32:40;95551.56;;;11.16;69.01
29247;BME280;16272;48.188;9.964;2022-12-24T04:35:06;95553.59;;;11.22;69.28
29247;BME280;16272;48.188;9.964;2022-12-24T04:37:32;95547.31;;;11.40;68.63
29247;BME280;16272;48.188;9.964;2022-12-24T04:40:01;95546.03;;;11.01;69.19
29247;BME280;16272;48.188;9.964;2022-12-24T04:42:26;95544.84;;;11.55;67.78
29247;BME280;16272;48.188;9.964;2022-12-24T04:44:51;95557.25;;;11.21;67.92
29247;BME280;16272;48.188;9.964;2022-12-24T04:47:17;95546.28;;;11.25;68.01
29247;BME280;16272;48.188;9.964;2022-12-24T04:49:42;95555.41;;;11.22;68.08
29247;BME280;16272;48.188;9.964;2022-12-24T04:52:12;95553.94;;;11.36;67.53
29247;BME280;16272;48.188;9.964;2022-12-24T04:54:38;95540.88;;;11.00;68.07
29247;BME280;16272;48.188;9.964;2022-12-24T04:57:03;95540.34;;;11.47;66.45
29247;BME280;16272;48.188;9.964;2022-12-24T04:59:28;95550.94;;;11.31;67.01
29247;BME280;16272;48.188;9.964;2022-12-24T05:01:54;95544.88;;;10.96;67.96
29247;BME280;16272;48.188;9.964;2022-12-24T05:04:20;95553.63;;;10.88;68.29
29247;BME280;16272;48.188;9.964;2022-12-24T05:06:45;95556.50;;;11.03;68.13
29247;BME280;16272;48.188;9.964;2022-12-24T05:09:11;95570.84;;;11.10;67.82
29247;BME280;16272;48.188;9.964;2022-12-24T05:11:37;95573.50;;;10.76;67.92
29247;BME280;16272;48.188;9.964;2022-12-24T05:14:02;95573.31;;;10.69;68.67
29247;BME280;16272;48.188;9.964;2022-12-24T05:16:27;95578.03;;;10.92;67.23
29247;BME280;16272;48.188;9.964;2022-12-24T05:18:55;95575.66;;;10.80;67.91
29247;BME280;16272;48.188;9.964;2022-12-24T05:21:22;95588.97;;;10.89;67.17
29247;BME280;16272;48.188;9.964;2022-12-24T05:23:48;95584.41;;;10.99;66.79
29247;BME280;16272;48.188;9.964;2022-12-24T05:26:39;95598.19;;;11.02;66.65
29247;BME280;16272;48.188;9.964;2022-12-24T05:29:07;95602.22;;;10.80;67.46
29247;BME280;16272;48.188;9.964;2022-12-24T05:31:33;95598.41;;;11.09;66.37
29247;BME280;16272;48.188;9.964;2022-12-24T05:33:59;95595.69;;;11.01;66.51
29247;BME280;16272;48.188;9.964;2022-12-24T05:36:25;95594.25;;;10.80;67.18
29247;BME280;16272;48.188;9.964;2022-12-24T05:38:56;95598.34;;;11.01;67.15
29247;BME280;16272;48.188;9.964;2022-12-24T05:41:24;95602.56;;;11.12;66.98
29247;BME280;16272;48.188;9.964;2022-12-24T05:43:54;95595.31;;;10.88;67.20
29247;BME280;16272;48.188;9.964;2022-12-24T05:46:21;95601.97;;;10.92;67.73
29247;BME280;16272;48.188;9.964;2022-12-24T05:48:50;95615.94;;;10.94;67.52
29247;BME280;16272;48.188;9.964;2022-12-24T05:51:17;95622.78;;;11.04;66.87
29247;BME280;16272;48.188;9.964;2022-12-24T05:53:44;95623.63;;;10.79;67.21
29247;BME280;16272;48.188;9.964;2022-12-24T05:56:12;95625.31;;;11.14;66.56
29247;BME280;16272;48.188;9.964;2022-12-24T05:58:39;95613.84;;;11.06;66.26
29247;BME280;16272;48.188;9.964;2022-12-24T06:01:05;95614.94;;;11.37;65.44
29247;BME280;16272;48.188;9.964;2022-12-24T06:03:32;95612.28;;;10.95;66.75
29247;BME280;16272;48.188;9.964;2022-12-24T06:06:15;95609.22;;;11.16;67.24
29247;BME280;16272;48.188;9.964;2022-12-24T06:08:45;95609.66;;;11.03;67.56
29247;BME280;16272;48.188;9.964;2022-12-24T06:11:13;95619.19;;;10.79;67.57
29247;BME280;16272;48.188;9.964;2022-12-24T06:13:42;95621.16;;;10.77;67.84
29247;BME280;16272;48.188;9.964;2022-12-24T06:16:10;95620.09;;;10.70;67.44
29247;BME280;16272;48.188;9.964;2022-12-24T06:18:36;95614.63;;;10.72;67.68
29247;BME280;16272;48.188;9.964;2022-12-24T06:21:02;95628.22;;;10.95;66.75
29247;BME280;16272;48.188;9.964;2022-12-24T06:23:30;95634.00;;;10.90;67.50
29247;BME280;16272;48.188;9.964;2022-12-24T06:25:57;95641.47;;;10.60;68.25
29247;BME280;16272;48.188;9.964;2022-12-24T06:28:25;95649.38;;;10.78;67.83
29247;BME280;16272;48.188;9.964;2022-12-24T06:30:56;95644.72;;;10.80;67.45
29247;BME280;16272;48.188;9.964;2022-12-24T06:33:21;95655.53;;;10.53;67.70
29247;BME280;16272;48.188;9.964;2022-12-24T06:35:47;95644.25;;;10.85;67.27
29247;BME280;16272;48.188;9.964;2022-12-24T06:38:13;95648.72;;;10.76;66.99
29247;BME280;16272;48.188;9.964;2022-12-24T06:40:40;95646.28;;;11.17;66.12
29247;BME280;16272;48.188;9.964;2022-12-24T06:43:06;95648.66;;;10.94;66.51
29247;BME280;16272;48.188;9.964;2022-12-24T06:45:31;95652.44;;;10.92;66.10
29247;BME280;16272;48.188;9.964;2022-12-24T06:47:58;95640.59;;;11.12;66.23
29247;BME280;16272;48.188;9.964;2022-12-24T06:50:23;95651.38;;;11.11;66.04
29247;BME280;16272;48.188;9.964;2022-12-24T06:52:49;95654.56;;;11.14;66.29
29247;BME280;16272;48.188;9.964;2022-12-24T06:55:14;95666.34;;;11.12;66.33
29247;BME280;16272;48.188;9.964;2022-12-24T06:57:42;95654.81;;;11.03;65.57
29247;BME280;16272;48.188;9.964;2022-12-24T07:00:09;95654.25;;;11.17;65.93
29247;BME280;16272;48.188;9.964;2022-12-24T07:02:41;95646.75;;;11.13;65.74
29247;BME280;16272;48.188;9.964;2022-12-24T07:05:07;95654.78;;;10.95;65.96
29247;BME280;16272;48.188;9.964;2022-12-24T07:07:36;95655.69;;;10.77;66.98
29247;BME280;16272;48.188;9.964;2022-12-24T07:10:05;95662.25;;;11.26;65.23
29247;BME280;16272;48.188;9.964;2022-12-24T07:12:31;95663.78;;;10.68;66.67
29247;BME280;16272;48.188;9.964;2022-12-24T07:14:56;95668.03;;;10.87;65.80
29247;BME280;16272;48.188;9.964;2022-12-24T07:17:23;95693.91;;;10.58;66.92
29247;BME280;16272;48.188;9.964;2022-12-24T07:19:48;95688.81;;;10.47;67.51
29247;BME280;16272;48.188;9.964;2022-12-24T07:22:13;95688.81;;;10.91;66.14
29247;BME280;16272;48.188;9.964;2022-12-24T07:24:39;95689.72;;;10.56;66.10
29247;BME280;16272;48.188;9.964;2022-12-24T07:27:06;95697.88;;;11.07;65.65
29247;BME280;16272;48.188;9.964;2022-12-24T07:29:33;95690.75;;;10.81;66.24
29247;BME280;16272;48.188;9.964;2022-12-24T07:31:58;95688.16;;;10.45;67.46
29247;BME280;16272;48.188;9.964;2022-12-24T07:34:23;95695.16;;;10.72;66.19
29247;BME280;16272;48.188;9.964;2022-12-24T07:36:50;95698.25;;;10.85;66.53
29247;BME280;16272;48.188;9.964;2022-12-24T07:39:15;95710.84;;;10.83;66.41
29247;BME280;16272;48.188;9.964;2022-12-24T07:41:40;95717.50;;;10.61;67.43
29247;BME280;16272;48.188;9.964;2022-12-24T07:44:06;95718.28;;;10.80;66.63
29247;BME280;16272;48.188;9.964;2022-12-24T07:46:31;95718.31;;;10.62;67.34
29247;BME280;16272;48.188;9.964;2022-12-24T07:48:56;95719.88;;;10.46;67.67
29247;BME280;16272;48.188;9.964;2022-12-24T07:51:22;95711.53;;;10.85;66.74
29247;BME280;16272;48.188;9.964;2022-12-24T07:53:47;95717.41;;;10.71;67.00
29247;BME280;16272;48.188;9.964;2022-12-24T07:56:33;95726.06;;;10.55;67.45
29247;BME280;16272;48.188;9.964;2022-12-24T07:59:03;95722.97;;;10.60;68.11
29247;BME280;16272;48.188;9.964;2022-12-24T08:01:29;95732.59;;;10.61;67.84
29247;BME280;16272;48.188;9.964;2022-12-24T08:03:54;95726.16;;;10.90;67.33
29247;BME280;16272;48.188;9.964;2022-12-24T08:06:23;95742.00;;;10.73;67.84
29247;BME280;16272;48.188;9.964;2022-12-24T08:09:00;95740.38;;;10.62;68.26
29247;BME280;16272;48.188;9.964;2022-12-24T08:11:26;95742.00;;;10.37;69.22
29247;BME280;16272;48.188;9.964;2022-12-24T08:13:51;95744.97;;;10.34;69.99
29247;BME280;16272;48.188;9.964;2022-12-24T08:16:17;95755.66;;;10.42;69.93
29247;BME280;16272;48.188;9.964;2022-12-24T08:18:51;95755.81;;;10.59;69.30
29247;BME280;16272;48.188;9.964;2022-12-24T08:21:17;95765.78;;;10.29;70.85
29247;BME280;16272;48.188;9.964;2022-12-24T08:23:46;95772.75;;;10.40;70.52
29247;BME280;16272;48.188;9.964;2022-12-24T08:26:17;95785.53;;;10.44;70.77
29247;BME280;16272;48.188;9.964;2022-12-24T08:28:43;95790.78;;;10.54;70.05
29247;BME280;16272;48.188;9.964;2022-12-24T08:31:08;95791.63;;;10.55;70.27
29247;BME280;16272;48.188;9.964;2022-12-24T08:33:34;95786.84;;;10.40;71.21
29247;BME280;16272;48.188;9.964;2022-12-24T08:36:00;95792.84;;;10.15;72.23
29247;BME280;16272;48.188;9.964;2022-12-24T08:38:25;95807.72;;;10.25;71.36
29247;BME280;16272;48.188;9.964;2022-12-24T08:40:52;95797.38;;;10.32;71.32
29247;BME280;16272;48.188;9.964;2022-12-24T08:43:18;95803.47;;;10.60;70.46
29247;BME280;16272;48.188;9.964;2022-12-24T08:45:44;95809.75;;;10.41;70.89
29247;BME280;16272;48.188;9.964;2022-12-24T08:48:10;95811.13;;;10.18;71.54
29247;BME280;16272;48.188;9.964;2022-12-24T08:50:39;95814.66;;;10.36;71.14
29247;BME280;16272;48.188;9.964;2022-12-24T08:53:05;95819.38;;;10.15;71.47
29247;BME280;16272;48.188;9.964;2022-12-24T08:55:30;95818.63;;;10.32;70.89
29247;BME280;16272;48.188;9.964;2022-12-24T08:58:02;95834.03;;;10.19;70.71
29247;BME280;16272;48.188;9.964;2022-12-24T09:00:30;95831.97;;;10.40;70.29
29247;BME280;16272;48.188;9.964;2022-12-24T09:02:55;95838.44;;;10.28;71.09
29247;BME280;16272;48.188;9.964;2022-12-24T09:05:21;95839.66;;;10.43;69.93
29247;BME280;16272;48.188;9.964;2022-12-24T09:07:46;95832.66;;;10.15;70.49
29247;BME280;16272;48.188;9.964;2022-12-24T09:10:12;95851.09;;;10.44;69.82
29247;BME280;16272;48.188;9.964;2022-12-24T09:12:37;95848.66;;;10.51;69.91
29247;BME280;16272;48.188;9.964;2022-12-24T09:15:03;95847.69;;;10.24;70.71
29247;BME280;16272;48.188;9.964;2022-12-24T09:17:32;95841.59;;;10.14;70.59
29247;BME280;16272;48.188;9.964;2022-12-24T09:19:57;95854.47;;;10.36;70.49
29247;BME280;16272;48.188;9.964;2022-12-24T09:22:26;95861.44;;;10.65;69.47
29247;BME280;16272;48.188;9.964;2022-12-24T09:24:54;95846.56;;;10.72;69.56
29247;BME280;16272;48.188;9.964;2022-12-24T09:27:20;95845.94;;;10.42;69.73
29247;BME280;16272;48.188;9.964;2022-12-24T09:29:45;95841.00;;;10.47;69.55
29247;BME280;16272;48.188;9.964;2022-12-24T09:32:10;95840.78;;;10.59;69.31
29247;BME280;16272;48.188;9.964;2022-12-24T09:34:41;95847.53;;;10.53;69.61
29247;BME280;16272;48.188;9.964;2022-12-24T09:37:06;95846.84;;;10.33;70.41
29247;BME280;16272;48.188;9.964;2022-12-24T09:39:32;95840.84;;;10.21;70.31
29247;BME280;16272;48.188;9.964;2022-12-24T09:43:05;95843.72;;;11.28;67.99
29247;BME280;16272;48.188;9.964;2022-12-24T09:45:22;95858.19;;;10.89;67.82
29247;BME280;16272;48.188;9.964;2022-12-24T09:47:51;95857.81;;;11.02;68.34
29247;BME280;16272;48.188;9.964;2022-12-24T09:50:39;95840.94;;;10.75;68.16
29247;BME280;16272;48.188;9.964;2022-12-24T09:55:48;95841.78;;;10.40;69.47
29247;BME280;16272;48.188;9.964;2022-12-24T09:58:27;95851.88;;;10.72;68.21
29247;BME280;16272;48.188;9.964;2022-12-24T10:00:55;95858.41;;;10.60;69.31
29247;BME280;16272;48.188;9.964;2022-12-24T10:03:23;95853.09;;;10.60;68.61
29247;BME280;16272;48.188;9.964;2022-12-24T10:12:21;95841.78;;;10.40;69.07
29247;BME280;16272;48.188;9.964;2022-12-24T10:23:05;95831.38;;;10.46;69.10
29247;BME280;16272;48.188;9.964;2022-12-24T10:28:52;95834.81;;;10.29;69.29
29247;BME280;16272;48.188;9.964;2022-12-24T10:31:55;95843.06;;;10.54;67.93
29247;BME280;16272;48.188;9.964;2022-12-24T10:34:25;95845.50;;;10.65;67.36
29247;BME280;16272;48.188;9.964;2022-12-24T10:36:55;95851.47;;;10.21;68.23
29247;BME280;16272;48.188;9.964;2022-12-24T10:39:23;95859.88;;;10.44;68.24
29247;BME280;16272;48.188;9.964;2022-12-24T10:41:55;95844.31;;;10.32;69.22
29247;BME280;16272;48.188;9.964;2022-12-24T10:44:25;95841.59;;;10.14;69.71
29247;BME280;16272;48.188;9.964;2022-12-24T10:46:53;95834.38;;;10.06;69.86
29247;BME280;16272;48.188;9.964;2022-12-24T10:52:10;95842.69;;;10.21;68.65
29247;BME280;16272;48.188;9.964;2022-12-24T10:54:36;95855.91;;;10.76;67.56
29247;BME280;16272;48.188;9.964;2022-12-24T10:57:05;95866.16;;;10.71;68.97
29247;BME280;16272;48.188;9.964;2022-12-24T10:59:53;95861.69;;;10.90;66.87
29247;BME280;16272;48.188;9.964;2022-12-24T11:02:28;95859.38;;;11.13;66.48
29247;BME280;16272;48.188;9.964;2022-12-24T11:04:56;95853.84;;;11.06;66.62
29247;BME280;16272;48.188;9.964;2022-12-24T11:07:29;95852.28;;;10.77;67.92
29247;BME280;16272;48.188;9.964;2022-12-24T11:10:00;95858.19;;;10.89;67.85
29247;BME280;16272;48.188;9.964;2022-12-24T11:12:48;95860.84;;;10.71;67.59
29247;BME280;16272;48.188;9.964;2022-12-24T11:15:32;95869.41;;;11.01;67.30
29247;BME280;16272;48.188;9.964;2022-12-24T11:18:13;95860.06;;;10.97;66.48
29247;BME280;16272;48.188;9.964;2022-12-24T11:20:40;95864.63;;;10.87;66.34
29247;BME280;16272;48.188;9.964;2022-12-24T11:23:15;95856.28;;;11.44;65.79
29247;BME280;16272;48.188;9.964;2022-12-24T11:25:46;95860.06;;;10.79;67.11
29247;BME280;16272;48.188;9.964;2022-12-24T11:28:26;95861.44;;;11.01;66.86
29247;BME280;16272;48.188;9.964;2022-12-24T11:31:17;95857.94;;;11.18;66.08
29247;BME280;16272;48.188;9.964;2022-12-24T11:33:49;95858.84;;;11.09;66.38
29247;BME280;16272;48.188;9.964;2022-12-24T11:36:16;95866.28;;;11.24;66.29
29247;BME280;16272;48.188;9.964;2022-12-24T11:38:51;95870.28;;;11.72;64.87
29247;BME280;16272;48.188;9.964;2022-12-24T11:41:17;95868.72;;;11.61;65.81
29247;BME280;16272;48.188;9.964;2022-12-24T11:43:45;95864.47;;;11.76;63.81
29247;BME280;16272;48.188;9.964;2022-12-24T11:46:35;95867.03;;;11.60;64.79
29247;BME280;16272;48.188;9.964;2022-12-24T11:49:40;95869.03;;;11.84;65.09
29247;BME280;16272;48.188;9.964;2022-12-24T11:57:19;95866.66;;;11.29;65.54
29247;BME280;16272;48.188;9.964;2022-12-24T11:59:48;95865.84;;;11.10;66.48
29247;BME280;16272;48.188;9.964;2022-12-24T12:02:38;95868.56;;;11.63;64.77
29247;BME280;16272;48.188;9.964;2022-12-24T12:05:23;95856.13;;;11.19;66.16
29247;BME280;16272;48.188;9.964;2022-12-24T12:07:53;95857.03;;;10.92;66.25
29247;BME280;16272;48.188;9.964;2022-12-24T12:10:30;95863.25;;;11.18;66.03
29247;BME280;16272;48.188;9.964;2022-12-24T12:13:30;95869.50;;;11.09;65.89
29247;BME280;16272;48.188;9.964;2022-12-24T12:16:22;95865.22;;;11.16;66.54
29247;BME280;16272;48.188;9.964;2022-12-24T12:19:03;95861.59;;;10.63;67.85
29247;BME280;16272;48.188;9.964;2022-12-24T12:21:41;95862.66;;;10.89;66.63
29247;BME280;16272;48.188;9.964;2022-12-24T12:24:15;95866.34;;;10.42;68.18
29247;BME280;16272;48.188;9.964;2022-12-24T12:26:48;95866.63;;;10.39;67.34
29247;BME280;16272;48.188;9.964;2022-12-24T12:29:31;95864.75;;;10.49;67.51
29247;BME280;16272;48.188;9.964;2022-12-24T12:32:15;95865.06;;;10.64;67.31
29247;BME280;16272;48.188;9.964;2022-12-24T12:34:57;95874.50;;;10.76;66.59
29247;BME280;16272;48.188;9.964;2022-12-24T12:37:39;95870.38;;;10.64;66.42
29247;BME280;16272;48.188;9.964;2022-12-24T12:40:16;95863.72;;;10.96;66.04
29247;BME280;16272;48.188;9.964;2022-12-24T12:43:05;95869.88;;;10.96;66.15
29247;BME280;16272;48.188;9.964;2022-12-24T12:46:02;95866.50;;;11.30;65.64
29247;BME280;16272;48.188;9.964;2022-12-24T12:56:31;95862.25;;;11.19;64.59
29247;BME280;16272;48.188;9.964;2022-12-24T13:01:46;95862.53;;;11.34;66.22
29247;BME280;16272;48.188;9.964;2022-12-24T13:07:49;95867.34;;;11.31;65.82
29247;BME280;16272;48.188;9.964;2022-12-24T13:16:14;95858.78;;;10.83;65.87
29247;BME280;16272;48.188;9.964;2022-12-24T13:21:22;95869.50;;;10.73;66.76
29247;BME280;16272;48.188;9.964;2022-12-24T13:23:48;95865.56;;;10.77;65.90
29247;BME280;16272;48.188;9.964;2022-12-24T13:26:14;95869.31;;;11.29;65.13
29247;BME280;16272;48.188;9.964;2022-12-24T13:28:41;95880.13;;;11.53;64.39
29247;BME280;16272;48.188;9.964;2022-12-24T13:36:13;95875.41;;;11.03;65.92
29247;BME280;16272;48.188;9.964;2022-12-24T13:38:55;95873.75;;;11.64;64.74
29247;BME280;16272;48.188;9.964;2022-12-24T13:49:43;95861.59;;;10.81;66.49
29247;BME280;16272;48.188;9.964;2022-12-24T14:02:32;95868.81;;;11.25;65.83
29247;BME280;16272;48.188;9.964;2022-12-24T14:05:05;95872.53;;;10.78;65.97
29247;BME280;16272;48.188;9.964;2022-12-24T14:07:32;95888.53;;;11.04;65.92
29247;BME280;16272;48.188;9.964;2022-12-24T14:09:58;95882.69;;;11.37;63.99
29247;BME280;16272;48.188;9.964;2022-12-24T14:12:47;95879.81;;;10.94;64.91
29247;BME280;16272;48.188;9.964;2022-12-24T14:18:17;95885.84;;;10.51;66.49
29247;BME280;16272;48.188;9.964;2022-12-24T14:20:42;95885.38;;;10.27;67.12
29247;BME280;16272;48.188;9.964;2022-12-24T14:23:27;95879.28;;;10.55;66.58
29247;BME280;16272;48.188;9.964;2022-12-24T14:25:56;95875.19;;;10.78;66.08
29247;BME280;16272;48.188;9.964;2022-12-24T14:31:51;95888.69;;;10.85;66.02
29247;BME280;16272;48.188;9.964;2022-12-24T14:34:17;95887.41;;;11.07;64.41
29247;BME280;16272;48.188;9.964;2022-12-24T14:36:43;95883.63;;;10.46;66.52
29247;BME280;16272;48.188;9.964;2022-12-24T14:39:19;95876.75;;;10.53;66.73
29247;BME280;16272;48.188;9.964;2022-12-24T14:45:47;95871.81;;;10.30;66.68
29247;BME280;16272;48.188;9.964;2022-12-24T14:48:01;95878.88;;;10.22;67.37
29247;BME280;16272;48.188;9.964;2022-12-24T14:55:42;95882.38;;;10.12;67.13
29247;BME280;16272;48.188;9.964;2022-12-24T15:00:46;95881.03;;;10.08;66.98
29247;BME280;16272;48.188;9.964;2022-12-24T15:03:17;95887.19;;;9.99;67.46
29247;BME280;16272;48.188;9.964;2022-12-24T15:05:43;95895.63;;;9.85;67.55
29247;BME280;16272;48.188;9.964;2022-12-24T15:08:15;95899.38;;;9.92;68.24
29247;BME280;16272;48.188;9.964;2022-12-24T15:10:49;95902.91;;;9.83;68.05
29247;BME280;16272;48.188;9.964;2022-12-24T15:15:56;95901.53;;;9.59;69.21